<?xml version="1.0" encoding="UTF-8" standalone="no" ?>
<gpx xmlns="http://www.topografix.com/GPX/1/1" creator="MapSource 6.11.6" version="1.1" xmlns:xsi="http://www.w3.org/2001/XMLSchema-instance" xsi:schemaLocation="http://www.topografix.com/GPX/1/1 http://www.topografix.com/GPX/1/1/gpx.xsd">

  <metadata>
    <link href="http://www.garmin.com">
      <text>Garmin International</text>
    </link>
    <time>2009-02-21T11:40:11Z</time>
    <bounds maxlat="50.673811" maxlon="6.461333" minlat="50.650348" minlon="6.412842"/>
  </metadata>

  <trk>
    <name>Rossberg RW</name>
    <extensions>
      <gpxx:TrackExtension xmlns:gpxx="http://www.garmin.com/xmlschemas/GpxExtensions/v3" xmlns:xsi="http://www.w3.org/2001/XMLSchema-instance" xsi:schemaLocation="http://www.garmin.com/xmlschemas/GpxExtensions/v3 http://www.garmin.com/xmlschemas/GpxExtensions/v3/GpxExtensionsv3.xsd">
        <gpxx:DisplayColor>White</gpxx:DisplayColor>
      </gpxx:TrackExtension>
    </extensions>
    <trkseg>
      <trkpt lat="50.656604" lon="6.413387">
        <ele>442.824000</ele>
        <time>2009-02-21T12:44:31Z</time>
      </trkpt>
      <trkpt lat="50.656129" lon="6.413378">
        <ele>444.747000</ele>
        <time>2009-02-21T12:45:07Z</time>
      </trkpt>
      <trkpt lat="50.655959" lon="6.413231">
        <ele>443.305000</ele>
        <time>2009-02-21T12:45:23Z</time>
      </trkpt>
      <trkpt lat="50.655289" lon="6.412967">
        <ele>439.460000</ele>
        <time>2009-02-21T12:46:16Z</time>
      </trkpt>
      <trkpt lat="50.655166" lon="6.413008">
        <ele>438.499000</ele>
        <time>2009-02-21T12:46:26Z</time>
      </trkpt>
      <trkpt lat="50.654709" lon="6.413302">
        <ele>438.018000</ele>
        <time>2009-02-21T12:47:05Z</time>
      </trkpt>
      <trkpt lat="50.654596" lon="6.413323">
        <ele>437.537000</ele>
        <time>2009-02-21T12:47:13Z</time>
      </trkpt>
      <trkpt lat="50.654220" lon="6.413461">
        <ele>438.979000</ele>
        <time>2009-02-21T12:47:43Z</time>
      </trkpt>
      <trkpt lat="50.653888" lon="6.413488">
        <ele>439.460000</ele>
        <time>2009-02-21T12:48:09Z</time>
      </trkpt>
      <trkpt lat="50.653591" lon="6.413514">
        <ele>438.018000</ele>
        <time>2009-02-21T12:48:32Z</time>
      </trkpt>
      <trkpt lat="50.653303" lon="6.413287">
        <ele>434.653000</ele>
        <time>2009-02-21T12:48:58Z</time>
      </trkpt>
      <trkpt lat="50.653218" lon="6.413181">
        <ele>435.134000</ele>
        <time>2009-02-21T12:49:06Z</time>
      </trkpt>
      <trkpt lat="50.652943" lon="6.412931">
        <ele>431.769000</ele>
        <time>2009-02-21T12:49:31Z</time>
      </trkpt>
      <trkpt lat="50.652633" lon="6.412866">
        <ele>429.847000</ele>
        <time>2009-02-21T12:49:55Z</time>
      </trkpt>
      <trkpt lat="50.652324" lon="6.412842">
        <ele>426.001000</ele>
        <time>2009-02-21T12:50:19Z</time>
      </trkpt>
      <trkpt lat="50.652050" lon="6.412971">
        <ele>424.079000</ele>
        <time>2009-02-21T12:50:41Z</time>
      </trkpt>
      <trkpt lat="50.651724" lon="6.413163">
        <ele>421.195000</ele>
        <time>2009-02-21T12:51:08Z</time>
      </trkpt>
      <trkpt lat="50.651373" lon="6.413219">
        <ele>416.869000</ele>
        <time>2009-02-21T12:51:36Z</time>
      </trkpt>
      <trkpt lat="50.650911" lon="6.413283">
        <ele>412.543000</ele>
        <time>2009-02-21T12:52:12Z</time>
      </trkpt>
      <trkpt lat="50.650787" lon="6.413311">
        <ele>411.101000</ele>
        <time>2009-02-21T12:52:22Z</time>
      </trkpt>
      <trkpt lat="50.650716" lon="6.413609">
        <ele>409.659000</ele>
        <time>2009-02-21T12:52:38Z</time>
      </trkpt>
      <trkpt lat="50.650779" lon="6.414026">
        <ele>407.736000</ele>
        <time>2009-02-21T12:52:59Z</time>
      </trkpt>
      <trkpt lat="50.650861" lon="6.414450">
        <ele>405.333000</ele>
        <time>2009-02-21T12:53:21Z</time>
      </trkpt>
      <trkpt lat="50.650956" lon="6.415127">
        <ele>401.488000</ele>
        <time>2009-02-21T12:53:55Z</time>
      </trkpt>
      <trkpt lat="50.651150" lon="6.415158">
        <ele>399.565000</ele>
        <time>2009-02-21T12:54:10Z</time>
      </trkpt>
      <trkpt lat="50.651482" lon="6.415108">
        <ele>398.123000</ele>
        <time>2009-02-21T12:54:36Z</time>
      </trkpt>
      <trkpt lat="50.651892" lon="6.415123">
        <ele>395.239000</ele>
        <time>2009-02-21T12:55:08Z</time>
      </trkpt>
      <trkpt lat="50.651982" lon="6.415154">
        <ele>394.759000</ele>
        <time>2009-02-21T12:55:15Z</time>
      </trkpt>
      <trkpt lat="50.652199" lon="6.415255">
        <ele>391.394000</ele>
        <time>2009-02-21T12:55:33Z</time>
      </trkpt>
      <trkpt lat="50.652493" lon="6.415543">
        <ele>390.433000</ele>
        <time>2009-02-21T12:56:00Z</time>
      </trkpt>
      <trkpt lat="50.652678" lon="6.415834">
        <ele>389.952000</ele>
        <time>2009-02-21T12:56:20Z</time>
      </trkpt>
      <trkpt lat="50.652928" lon="6.416122">
        <ele>387.549000</ele>
        <time>2009-02-21T12:56:44Z</time>
      </trkpt>
      <trkpt lat="50.653093" lon="6.416359">
        <ele>386.107000</ele>
        <time>2009-02-21T12:57:01Z</time>
      </trkpt>
      <trkpt lat="50.653361" lon="6.416887">
        <ele>384.184000</ele>
        <time>2009-02-21T12:57:35Z</time>
      </trkpt>
      <trkpt lat="50.653323" lon="6.417137">
        <ele>380.819000</ele>
        <time>2009-02-21T12:57:47Z</time>
      </trkpt>
      <trkpt lat="50.653243" lon="6.417318">
        <ele>377.935000</ele>
        <time>2009-02-21T12:57:58Z</time>
      </trkpt>
      <trkpt lat="50.653108" lon="6.417683">
        <ele>374.571000</ele>
        <time>2009-02-21T12:58:19Z</time>
      </trkpt>
      <trkpt lat="50.652583" lon="6.418470">
        <ele>365.438000</ele>
        <time>2009-02-21T12:59:16Z</time>
      </trkpt>
      <trkpt lat="50.652538" lon="6.418810">
        <ele>367.361000</ele>
        <time>2009-02-21T12:59:33Z</time>
      </trkpt>
      <trkpt lat="50.652485" lon="6.419023">
        <ele>367.842000</ele>
        <time>2009-02-21T12:59:44Z</time>
      </trkpt>
      <trkpt lat="50.652425" lon="6.419369">
        <ele>368.803000</ele>
        <time>2009-02-21T13:00:02Z</time>
      </trkpt>
      <trkpt lat="50.652397" lon="6.419896">
        <ele>370.726000</ele>
        <time>2009-02-21T13:00:28Z</time>
      </trkpt>
      <trkpt lat="50.652303" lon="6.420181">
        <ele>371.206000</ele>
        <time>2009-02-21T13:00:44Z</time>
      </trkpt>
      <trkpt lat="50.652191" lon="6.420643">
        <ele>372.648000</ele>
        <time>2009-02-21T13:01:08Z</time>
      </trkpt>
      <trkpt lat="50.652068" lon="6.421082">
        <ele>376.013000</ele>
        <time>2009-02-21T13:01:32Z</time>
      </trkpt>
      <trkpt lat="50.652104" lon="6.421445">
        <ele>376.974000</ele>
        <time>2009-02-21T13:01:50Z</time>
      </trkpt>
      <trkpt lat="50.652116" lon="6.422227">
        <ele>376.974000</ele>
        <time>2009-02-21T13:02:29Z</time>
      </trkpt>
      <trkpt lat="50.652105" lon="6.422741">
        <ele>376.013000</ele>
        <time>2009-02-21T13:02:54Z</time>
      </trkpt>
      <trkpt lat="50.652184" lon="6.423190">
        <ele>375.532000</ele>
        <time>2009-02-21T13:03:17Z</time>
      </trkpt>
      <trkpt lat="50.652102" lon="6.423544">
        <ele>374.571000</ele>
        <time>2009-02-21T13:03:36Z</time>
      </trkpt>
      <trkpt lat="50.651876" lon="6.423815">
        <ele>375.052000</ele>
        <time>2009-02-21T13:03:58Z</time>
      </trkpt>
      <trkpt lat="50.651696" lon="6.424194">
        <ele>375.052000</ele>
        <time>2009-02-21T13:04:21Z</time>
      </trkpt>
      <trkpt lat="50.651644" lon="6.424343">
        <ele>375.532000</ele>
        <time>2009-02-21T13:04:29Z</time>
      </trkpt>
      <trkpt lat="50.651459" lon="6.424877">
        <ele>373.129000</ele>
        <time>2009-02-21T13:04:59Z</time>
      </trkpt>
      <trkpt lat="50.651360" lon="6.425162">
        <ele>372.648000</ele>
        <time>2009-02-21T13:05:15Z</time>
      </trkpt>
      <trkpt lat="50.651190" lon="6.425403">
        <ele>371.206000</ele>
        <time>2009-02-21T13:05:33Z</time>
      </trkpt>
      <trkpt lat="50.651094" lon="6.425670">
        <ele>370.245000</ele>
        <time>2009-02-21T13:05:48Z</time>
      </trkpt>
      <trkpt lat="50.650922" lon="6.426024">
        <ele>369.764000</ele>
        <time>2009-02-21T13:06:10Z</time>
      </trkpt>
      <trkpt lat="50.650803" lon="6.426297">
        <ele>369.764000</ele>
        <time>2009-02-21T13:06:27Z</time>
      </trkpt>
      <trkpt lat="50.650906" lon="6.426364">
        <ele>369.284000</ele>
        <time>2009-02-21T13:06:35Z</time>
      </trkpt>
      <trkpt lat="50.651267" lon="6.426552">
        <ele>368.803000</ele>
        <time>2009-02-21T13:07:05Z</time>
      </trkpt>
      <trkpt lat="50.651735" lon="6.426718">
        <ele>369.284000</ele>
        <time>2009-02-21T13:07:42Z</time>
      </trkpt>
      <trkpt lat="50.651826" lon="6.426783">
        <ele>369.764000</ele>
        <time>2009-02-21T13:07:50Z</time>
      </trkpt>
      <trkpt lat="50.652075" lon="6.426832">
        <ele>370.245000</ele>
        <time>2009-02-21T13:08:10Z</time>
      </trkpt>
      <trkpt lat="50.652607" lon="6.427108">
        <ele>370.245000</ele>
        <time>2009-02-21T13:08:53Z</time>
      </trkpt>
      <trkpt lat="50.652739" lon="6.427415">
        <ele>371.206000</ele>
        <time>2009-02-21T13:09:12Z</time>
      </trkpt>
      <trkpt lat="50.652914" lon="6.427800">
        <ele>373.609000</ele>
        <time>2009-02-21T13:09:35Z</time>
      </trkpt>
      <trkpt lat="50.653054" lon="6.428146">
        <ele>376.013000</ele>
        <time>2009-02-21T13:09:55Z</time>
      </trkpt>
      <trkpt lat="50.653144" lon="6.428290">
        <ele>376.974000</ele>
        <time>2009-02-21T13:10:05Z</time>
      </trkpt>
      <trkpt lat="50.653385" lon="6.428881">
        <ele>380.339000</ele>
        <time>2009-02-21T13:10:40Z</time>
      </trkpt>
      <trkpt lat="50.653443" lon="6.429027">
        <ele>380.339000</ele>
        <time>2009-02-21T13:10:48Z</time>
      </trkpt>
      <trkpt lat="50.653457" lon="6.429469">
        <ele>376.494000</ele>
        <time>2009-02-21T13:11:10Z</time>
      </trkpt>
      <trkpt lat="50.653489" lon="6.429950">
        <ele>371.687000</ele>
        <time>2009-02-21T13:11:34Z</time>
      </trkpt>
      <trkpt lat="50.653548" lon="6.430466">
        <ele>366.400000</ele>
        <time>2009-02-21T13:12:00Z</time>
      </trkpt>
      <trkpt lat="50.653566" lon="6.430698">
        <ele>363.516000</ele>
        <time>2009-02-21T13:12:12Z</time>
      </trkpt>
      <trkpt lat="50.653402" lon="6.431052">
        <ele>359.190000</ele>
        <time>2009-02-21T13:12:33Z</time>
      </trkpt>
      <trkpt lat="50.653303" lon="6.431160">
        <ele>359.670000</ele>
        <time>2009-02-21T13:12:43Z</time>
      </trkpt>
      <trkpt lat="50.652988" lon="6.431321">
        <ele>361.593000</ele>
        <time>2009-02-21T13:13:08Z</time>
      </trkpt>
      <trkpt lat="50.651885" lon="6.431689">
        <ele>368.803000</ele>
        <time>2009-02-21T13:14:36Z</time>
      </trkpt>
      <trkpt lat="50.651239" lon="6.432618">
        <ele>374.571000</ele>
        <time>2009-02-21T13:15:44Z</time>
      </trkpt>
      <trkpt lat="50.651187" lon="6.432989">
        <ele>376.013000</ele>
        <time>2009-02-21T13:16:03Z</time>
      </trkpt>
      <trkpt lat="50.651187" lon="6.433516">
        <ele>378.416000</ele>
        <time>2009-02-21T13:16:29Z</time>
      </trkpt>
      <trkpt lat="50.651190" lon="6.434092">
        <ele>379.858000</ele>
        <time>2009-02-21T13:16:57Z</time>
      </trkpt>
      <trkpt lat="50.651198" lon="6.434252">
        <ele>379.858000</ele>
        <time>2009-02-21T13:17:05Z</time>
      </trkpt>
      <trkpt lat="50.651179" lon="6.434827">
        <ele>380.819000</ele>
        <time>2009-02-21T13:17:34Z</time>
      </trkpt>
      <trkpt lat="50.651137" lon="6.435245">
        <ele>381.781000</ele>
        <time>2009-02-21T13:17:55Z</time>
      </trkpt>
      <trkpt lat="50.650944" lon="6.435426">
        <ele>381.781000</ele>
        <time>2009-02-21T13:18:12Z</time>
      </trkpt>
      <trkpt lat="50.650838" lon="6.435475">
        <ele>381.781000</ele>
        <time>2009-02-21T13:18:21Z</time>
      </trkpt>
      <trkpt lat="50.650755" lon="6.435599">
        <ele>382.742000</ele>
        <time>2009-02-21T13:18:29Z</time>
      </trkpt>
      <trkpt lat="50.650510" lon="6.436025">
        <ele>383.703000</ele>
        <time>2009-02-21T13:18:58Z</time>
      </trkpt>
      <trkpt lat="50.650348" lon="6.436522">
        <ele>383.703000</ele>
        <time>2009-02-21T13:19:25Z</time>
      </trkpt>
      <trkpt lat="50.650389" lon="6.436697">
        <ele>382.742000</ele>
        <time>2009-02-21T13:19:35Z</time>
      </trkpt>
      <trkpt lat="50.650434" lon="6.436865">
        <ele>382.742000</ele>
        <time>2009-02-21T13:19:44Z</time>
      </trkpt>
      <trkpt lat="50.650715" lon="6.437718">
        <ele>384.184000</ele>
        <time>2009-02-21T13:20:31Z</time>
      </trkpt>
      <trkpt lat="50.650916" lon="6.438255">
        <ele>384.665000</ele>
        <time>2009-02-21T13:21:02Z</time>
      </trkpt>
      <trkpt lat="50.651198" lon="6.438941">
        <ele>384.184000</ele>
        <time>2009-02-21T13:21:42Z</time>
      </trkpt>
      <trkpt lat="50.651478" lon="6.439615">
        <ele>383.703000</ele>
        <time>2009-02-21T13:22:22Z</time>
      </trkpt>
      <trkpt lat="50.651762" lon="6.440283">
        <ele>383.223000</ele>
        <time>2009-02-21T13:23:02Z</time>
      </trkpt>
      <trkpt lat="50.651974" lon="6.441061">
        <ele>382.742000</ele>
        <time>2009-02-21T13:23:44Z</time>
      </trkpt>
      <trkpt lat="50.652011" lon="6.441455">
        <ele>382.742000</ele>
        <time>2009-02-21T13:24:03Z</time>
      </trkpt>
      <trkpt lat="50.652019" lon="6.441825">
        <ele>383.223000</ele>
        <time>2009-02-21T13:24:21Z</time>
      </trkpt>
      <trkpt lat="50.652031" lon="6.442192">
        <ele>384.184000</ele>
        <time>2009-02-21T13:24:40Z</time>
      </trkpt>
      <trkpt lat="50.652047" lon="6.442386">
        <ele>384.665000</ele>
        <time>2009-02-21T13:24:49Z</time>
      </trkpt>
      <trkpt lat="50.651986" lon="6.442553">
        <ele>385.626000</ele>
        <time>2009-02-21T13:24:59Z</time>
      </trkpt>
      <trkpt lat="50.651917" lon="6.442880">
        <ele>387.549000</ele>
        <time>2009-02-21T13:25:16Z</time>
      </trkpt>
      <trkpt lat="50.652003" lon="6.443241">
        <ele>389.471000</ele>
        <time>2009-02-21T13:25:35Z</time>
      </trkpt>
      <trkpt lat="50.651966" lon="6.443818">
        <ele>393.317000</ele>
        <time>2009-02-21T13:26:03Z</time>
      </trkpt>
      <trkpt lat="50.651920" lon="6.444178">
        <ele>396.201000</ele>
        <time>2009-02-21T13:26:22Z</time>
      </trkpt>
      <trkpt lat="50.651995" lon="6.444529">
        <ele>397.162000</ele>
        <time>2009-02-21T13:26:40Z</time>
      </trkpt>
      <trkpt lat="50.652151" lon="6.444565">
        <ele>397.162000</ele>
        <time>2009-02-21T13:26:52Z</time>
      </trkpt>
      <trkpt lat="50.652223" lon="6.444716">
        <ele>397.162000</ele>
        <time>2009-02-21T13:27:01Z</time>
      </trkpt>
      <trkpt lat="50.652207" lon="6.445014">
        <ele>397.162000</ele>
        <time>2009-02-21T13:27:16Z</time>
      </trkpt>
      <trkpt lat="50.652304" lon="6.445314">
        <ele>396.201000</ele>
        <time>2009-02-21T13:27:33Z</time>
      </trkpt>
      <trkpt lat="50.652520" lon="6.445883">
        <ele>395.720000</ele>
        <time>2009-02-21T13:28:06Z</time>
      </trkpt>
      <trkpt lat="50.652745" lon="6.446171">
        <ele>395.239000</ele>
        <time>2009-02-21T13:28:28Z</time>
      </trkpt>
      <trkpt lat="50.653016" lon="6.446413">
        <ele>393.797000</ele>
        <time>2009-02-21T13:28:52Z</time>
      </trkpt>
      <trkpt lat="50.653472" lon="6.446821">
        <ele>393.317000</ele>
        <time>2009-02-21T13:29:33Z</time>
      </trkpt>
      <trkpt lat="50.653821" lon="6.447145">
        <ele>394.759000</ele>
        <time>2009-02-21T13:30:05Z</time>
      </trkpt>
      <trkpt lat="50.653906" lon="6.447172">
        <ele>393.797000</ele>
        <time>2009-02-21T13:30:11Z</time>
      </trkpt>
      <trkpt lat="50.654088" lon="6.447054">
        <ele>393.797000</ele>
        <time>2009-02-21T13:30:27Z</time>
      </trkpt>
      <trkpt lat="50.654502" lon="6.446722">
        <ele>394.759000</ele>
        <time>2009-02-21T13:31:03Z</time>
      </trkpt>
      <trkpt lat="50.654811" lon="6.446443">
        <ele>396.681000</ele>
        <time>2009-02-21T13:31:31Z</time>
      </trkpt>
      <trkpt lat="50.655058" lon="6.446244">
        <ele>397.162000</ele>
        <time>2009-02-21T13:31:52Z</time>
      </trkpt>
      <trkpt lat="50.655239" lon="6.446055">
        <ele>397.162000</ele>
        <time>2009-02-21T13:32:09Z</time>
      </trkpt>
      <trkpt lat="50.655318" lon="6.445761">
        <ele>397.162000</ele>
        <time>2009-02-21T13:32:25Z</time>
      </trkpt>
      <trkpt lat="50.655428" lon="6.444993">
        <ele>397.642000</ele>
        <time>2009-02-21T13:33:04Z</time>
      </trkpt>
      <trkpt lat="50.655357" lon="6.444637">
        <ele>399.084000</ele>
        <time>2009-02-21T13:33:22Z</time>
      </trkpt>
      <trkpt lat="50.655167" lon="6.443743">
        <ele>399.565000</ele>
        <time>2009-02-21T13:34:09Z</time>
      </trkpt>
      <trkpt lat="50.655031" lon="6.443138">
        <ele>401.007000</ele>
        <time>2009-02-21T13:34:40Z</time>
      </trkpt>
      <trkpt lat="50.654899" lon="6.442499">
        <ele>402.449000</ele>
        <time>2009-02-21T13:35:14Z</time>
      </trkpt>
      <trkpt lat="50.655010" lon="6.442290">
        <ele>400.526000</ele>
        <time>2009-02-21T13:35:27Z</time>
      </trkpt>
      <trkpt lat="50.655170" lon="6.442120">
        <ele>399.565000</ele>
        <time>2009-02-21T13:35:42Z</time>
      </trkpt>
      <trkpt lat="50.655334" lon="6.441933">
        <ele>398.604000</ele>
        <time>2009-02-21T13:35:58Z</time>
      </trkpt>
      <trkpt lat="50.655766" lon="6.441456">
        <ele>396.681000</ele>
        <time>2009-02-21T13:36:39Z</time>
      </trkpt>
      <trkpt lat="50.655950" lon="6.441461">
        <ele>395.720000</ele>
        <time>2009-02-21T13:36:53Z</time>
      </trkpt>
      <trkpt lat="50.656016" lon="6.441596">
        <ele>395.239000</ele>
        <time>2009-02-21T13:37:02Z</time>
      </trkpt>
      <trkpt lat="50.656299" lon="6.442039">
        <ele>394.759000</ele>
        <time>2009-02-21T13:37:33Z</time>
      </trkpt>
      <trkpt lat="50.656507" lon="6.442541">
        <ele>394.278000</ele>
        <time>2009-02-21T13:38:02Z</time>
      </trkpt>
      <trkpt lat="50.656635" lon="6.443118">
        <ele>394.759000</ele>
        <time>2009-02-21T13:38:32Z</time>
      </trkpt>
      <trkpt lat="50.656769" lon="6.443720">
        <ele>394.759000</ele>
        <time>2009-02-21T13:39:04Z</time>
      </trkpt>
      <trkpt lat="50.656917" lon="6.444318">
        <ele>393.797000</ele>
        <time>2009-02-21T13:39:36Z</time>
      </trkpt>
      <trkpt lat="50.657084" lon="6.445040">
        <ele>393.797000</ele>
        <time>2009-02-21T13:40:13Z</time>
      </trkpt>
      <trkpt lat="50.657247" lon="6.445734">
        <ele>392.355000</ele>
        <time>2009-02-21T13:40:50Z</time>
      </trkpt>
      <trkpt lat="50.657386" lon="6.446342">
        <ele>388.991000</ele>
        <time>2009-02-21T13:41:22Z</time>
      </trkpt>
      <trkpt lat="50.657492" lon="6.446635">
        <ele>388.510000</ele>
        <time>2009-02-21T13:41:39Z</time>
      </trkpt>
      <trkpt lat="50.657676" lon="6.446795">
        <ele>389.952000</ele>
        <time>2009-02-21T13:41:55Z</time>
      </trkpt>
      <trkpt lat="50.657886" lon="6.446935">
        <ele>391.394000</ele>
        <time>2009-02-21T13:42:13Z</time>
      </trkpt>
      <trkpt lat="50.658346" lon="6.447189">
        <ele>391.875000</ele>
        <time>2009-02-21T13:42:51Z</time>
      </trkpt>
      <trkpt lat="50.658910" lon="6.447441">
        <ele>390.913000</ele>
        <time>2009-02-21T13:43:36Z</time>
      </trkpt>
      <trkpt lat="50.659248" lon="6.447646">
        <ele>389.471000</ele>
        <time>2009-02-21T13:44:04Z</time>
      </trkpt>
      <trkpt lat="50.659365" lon="6.447709">
        <ele>389.471000</ele>
        <time>2009-02-21T13:44:14Z</time>
      </trkpt>
      <trkpt lat="50.659561" lon="6.447814">
        <ele>389.471000</ele>
        <time>2009-02-21T13:44:30Z</time>
      </trkpt>
      <trkpt lat="50.659901" lon="6.447985">
        <ele>389.471000</ele>
        <time>2009-02-21T13:44:58Z</time>
      </trkpt>
      <trkpt lat="50.660281" lon="6.448155">
        <ele>390.913000</ele>
        <time>2009-02-21T13:45:29Z</time>
      </trkpt>
      <trkpt lat="50.660637" lon="6.448419">
        <ele>391.875000</ele>
        <time>2009-02-21T13:45:59Z</time>
      </trkpt>
      <trkpt lat="50.660725" lon="6.448711">
        <ele>391.394000</ele>
        <time>2009-02-21T13:46:15Z</time>
      </trkpt>
      <trkpt lat="50.660849" lon="6.449068">
        <ele>390.913000</ele>
        <time>2009-02-21T13:46:35Z</time>
      </trkpt>
      <trkpt lat="50.661049" lon="6.449671">
        <ele>390.433000</ele>
        <time>2009-02-21T13:47:09Z</time>
      </trkpt>
      <trkpt lat="50.661267" lon="6.450164">
        <ele>389.952000</ele>
        <time>2009-02-21T13:47:39Z</time>
      </trkpt>
      <trkpt lat="50.661578" lon="6.450653">
        <ele>388.029000</ele>
        <time>2009-02-21T13:48:13Z</time>
      </trkpt>
      <trkpt lat="50.661649" lon="6.450813">
        <ele>388.029000</ele>
        <time>2009-02-21T13:48:22Z</time>
      </trkpt>
      <trkpt lat="50.661970" lon="6.451619">
        <ele>385.626000</ele>
        <time>2009-02-21T13:49:09Z</time>
      </trkpt>
      <trkpt lat="50.662083" lon="6.451916">
        <ele>384.665000</ele>
        <time>2009-02-21T13:49:27Z</time>
      </trkpt>
      <trkpt lat="50.662363" lon="6.452439">
        <ele>383.223000</ele>
        <time>2009-02-21T13:50:00Z</time>
      </trkpt>
      <trkpt lat="50.662812" lon="6.453340">
        <ele>377.935000</ele>
        <time>2009-02-21T13:50:57Z</time>
      </trkpt>
      <trkpt lat="50.662854" lon="6.453526">
        <ele>377.935000</ele>
        <time>2009-02-21T13:51:07Z</time>
      </trkpt>
      <trkpt lat="50.662961" lon="6.453985">
        <ele>374.090000</ele>
        <time>2009-02-21T13:51:31Z</time>
      </trkpt>
      <trkpt lat="50.663024" lon="6.454518">
        <ele>370.726000</ele>
        <time>2009-02-21T13:51:57Z</time>
      </trkpt>
      <trkpt lat="50.663147" lon="6.455025">
        <ele>367.361000</ele>
        <time>2009-02-21T13:52:24Z</time>
      </trkpt>
      <trkpt lat="50.663149" lon="6.455540">
        <ele>363.516000</ele>
        <time>2009-02-21T13:52:50Z</time>
      </trkpt>
      <trkpt lat="50.663130" lon="6.455932">
        <ele>360.151000</ele>
        <time>2009-02-21T13:53:09Z</time>
      </trkpt>
      <trkpt lat="50.663180" lon="6.456288">
        <ele>356.786000</ele>
        <time>2009-02-21T13:53:27Z</time>
      </trkpt>
      <trkpt lat="50.663234" lon="6.456597">
        <ele>352.941000</ele>
        <time>2009-02-21T13:53:43Z</time>
      </trkpt>
      <trkpt lat="50.663280" lon="6.456939">
        <ele>349.096000</ele>
        <time>2009-02-21T13:54:00Z</time>
      </trkpt>
      <trkpt lat="50.663316" lon="6.457277">
        <ele>345.731000</ele>
        <time>2009-02-21T13:54:17Z</time>
      </trkpt>
      <trkpt lat="50.663366" lon="6.457759">
        <ele>341.886000</ele>
        <time>2009-02-21T13:54:41Z</time>
      </trkpt>
      <trkpt lat="50.663470" lon="6.458244">
        <ele>338.041000</ele>
        <time>2009-02-21T13:55:06Z</time>
      </trkpt>
      <trkpt lat="50.663538" lon="6.458584">
        <ele>337.079000</ele>
        <time>2009-02-21T13:55:24Z</time>
      </trkpt>
      <trkpt lat="50.663647" lon="6.459039">
        <ele>335.637000</ele>
        <time>2009-02-21T13:55:48Z</time>
      </trkpt>
      <trkpt lat="50.663837" lon="6.459475">
        <ele>335.637000</ele>
        <time>2009-02-21T13:56:14Z</time>
      </trkpt>
      <trkpt lat="50.664083" lon="6.459773">
        <ele>336.599000</ele>
        <time>2009-02-21T13:56:38Z</time>
      </trkpt>
      <trkpt lat="50.664975" lon="6.460851">
        <ele>343.809000</ele>
        <time>2009-02-21T13:58:06Z</time>
      </trkpt>
      <trkpt lat="50.665240" lon="6.461139">
        <ele>346.212000</ele>
        <time>2009-02-21T13:58:31Z</time>
      </trkpt>
      <trkpt lat="50.665626" lon="6.461333">
        <ele>348.615000</ele>
        <time>2009-02-21T13:59:02Z</time>
      </trkpt>
      <trkpt lat="50.665930" lon="6.461177">
        <ele>349.096000</ele>
        <time>2009-02-21T13:59:27Z</time>
      </trkpt>
      <trkpt lat="50.666216" lon="6.460841">
        <ele>348.615000</ele>
        <time>2009-02-21T13:59:55Z</time>
      </trkpt>
      <trkpt lat="50.666252" lon="6.460671">
        <ele>347.654000</ele>
        <time>2009-02-21T14:00:04Z</time>
      </trkpt>
      <trkpt lat="50.666360" lon="6.460141">
        <ele>348.615000</ele>
        <time>2009-02-21T14:00:31Z</time>
      </trkpt>
      <trkpt lat="50.666211" lon="6.458564">
        <ele>347.173000</ele>
        <time>2009-02-21T14:01:50Z</time>
      </trkpt>
      <trkpt lat="50.666193" lon="6.458398">
        <ele>347.654000</ele>
        <time>2009-02-21T14:01:58Z</time>
      </trkpt>
      <trkpt lat="50.666393" lon="6.458299">
        <ele>348.135000</ele>
        <time>2009-02-21T14:02:15Z</time>
      </trkpt>
      <trkpt lat="50.666642" lon="6.458296">
        <ele>349.096000</ele>
        <time>2009-02-21T14:02:34Z</time>
      </trkpt>
      <trkpt lat="50.666963" lon="6.458112">
        <ele>349.577000</ele>
        <time>2009-02-21T14:03:01Z</time>
      </trkpt>
      <trkpt lat="50.667429" lon="6.457851">
        <ele>350.057000</ele>
        <time>2009-02-21T14:03:39Z</time>
      </trkpt>
      <trkpt lat="50.667970" lon="6.457725">
        <ele>351.018000</ele>
        <time>2009-02-21T14:04:22Z</time>
      </trkpt>
      <trkpt lat="50.668374" lon="6.457676">
        <ele>351.018000</ele>
        <time>2009-02-21T14:04:53Z</time>
      </trkpt>
      <trkpt lat="50.668452" lon="6.457785">
        <ele>350.538000</ele>
        <time>2009-02-21T14:05:01Z</time>
      </trkpt>
      <trkpt lat="50.668787" lon="6.458183">
        <ele>351.018000</ele>
        <time>2009-02-21T14:05:34Z</time>
      </trkpt>
      <trkpt lat="50.669163" lon="6.458524">
        <ele>351.980000</ele>
        <time>2009-02-21T14:06:08Z</time>
      </trkpt>
      <trkpt lat="50.669377" lon="6.458912">
        <ele>351.499000</ele>
        <time>2009-02-21T14:06:33Z</time>
      </trkpt>
      <trkpt lat="50.669570" lon="6.459148">
        <ele>351.018000</ele>
        <time>2009-02-21T14:06:52Z</time>
      </trkpt>
      <trkpt lat="50.669681" lon="6.459279">
        <ele>351.018000</ele>
        <time>2009-02-21T14:07:03Z</time>
      </trkpt>
      <trkpt lat="50.669848" lon="6.459501">
        <ele>351.499000</ele>
        <time>2009-02-21T14:07:20Z</time>
      </trkpt>
      <trkpt lat="50.670230" lon="6.460079">
        <ele>353.903000</ele>
        <time>2009-02-21T14:08:01Z</time>
      </trkpt>
      <trkpt lat="50.670508" lon="6.460434">
        <ele>356.306000</ele>
        <time>2009-02-21T14:08:29Z</time>
      </trkpt>
      <trkpt lat="50.670595" lon="6.460538">
        <ele>356.306000</ele>
        <time>2009-02-21T14:08:37Z</time>
      </trkpt>
      <trkpt lat="50.670798" lon="6.460623">
        <ele>356.786000</ele>
        <time>2009-02-21T14:08:54Z</time>
      </trkpt>
      <trkpt lat="50.671064" lon="6.460525">
        <ele>356.306000</ele>
        <time>2009-02-21T14:09:15Z</time>
      </trkpt>
      <trkpt lat="50.671347" lon="6.460364">
        <ele>356.786000</ele>
        <time>2009-02-21T14:09:38Z</time>
      </trkpt>
      <trkpt lat="50.671659" lon="6.460106">
        <ele>357.267000</ele>
        <time>2009-02-21T14:10:06Z</time>
      </trkpt>
      <trkpt lat="50.671780" lon="6.460043">
        <ele>357.267000</ele>
        <time>2009-02-21T14:10:16Z</time>
      </trkpt>
      <trkpt lat="50.672033" lon="6.459793">
        <ele>356.786000</ele>
        <time>2009-02-21T14:10:39Z</time>
      </trkpt>
      <trkpt lat="50.672439" lon="6.459563">
        <ele>356.786000</ele>
        <time>2009-02-21T14:11:13Z</time>
      </trkpt>
      <trkpt lat="50.672835" lon="6.459492">
        <ele>356.786000</ele>
        <time>2009-02-21T14:11:44Z</time>
      </trkpt>
      <trkpt lat="50.673128" lon="6.459340">
        <ele>356.306000</ele>
        <time>2009-02-21T14:12:08Z</time>
      </trkpt>
      <trkpt lat="50.673518" lon="6.458926">
        <ele>356.306000</ele>
        <time>2009-02-21T14:12:44Z</time>
      </trkpt>
      <trkpt lat="50.673724" lon="6.458321">
        <ele>355.825000</ele>
        <time>2009-02-21T14:13:18Z</time>
      </trkpt>
      <trkpt lat="50.673770" lon="6.457845">
        <ele>356.786000</ele>
        <time>2009-02-21T14:13:42Z</time>
      </trkpt>
      <trkpt lat="50.673811" lon="6.457290">
        <ele>357.748000</ele>
        <time>2009-02-21T14:14:09Z</time>
      </trkpt>
      <trkpt lat="50.673761" lon="6.456811">
        <ele>357.267000</ele>
        <time>2009-02-21T14:14:33Z</time>
      </trkpt>
      <trkpt lat="50.673680" lon="6.456642">
        <ele>357.267000</ele>
        <time>2009-02-21T14:14:44Z</time>
      </trkpt>
      <trkpt lat="50.673351" lon="6.455931">
        <ele>357.267000</ele>
        <time>2009-02-21T14:15:27Z</time>
      </trkpt>
      <trkpt lat="50.673023" lon="6.455405">
        <ele>357.748000</ele>
        <time>2009-02-21T14:16:04Z</time>
      </trkpt>
      <trkpt lat="50.672921" lon="6.455305">
        <ele>357.267000</ele>
        <time>2009-02-21T14:16:13Z</time>
      </trkpt>
      <trkpt lat="50.672692" lon="6.455287">
        <ele>357.267000</ele>
        <time>2009-02-21T14:16:31Z</time>
      </trkpt>
      <trkpt lat="50.672319" lon="6.455423">
        <ele>357.267000</ele>
        <time>2009-02-21T14:17:01Z</time>
      </trkpt>
      <trkpt lat="50.672081" lon="6.455730">
        <ele>357.748000</ele>
        <time>2009-02-21T14:17:25Z</time>
      </trkpt>
      <trkpt lat="50.671885" lon="6.455885">
        <ele>357.748000</ele>
        <time>2009-02-21T14:17:42Z</time>
      </trkpt>
      <trkpt lat="50.671662" lon="6.456017">
        <ele>358.228000</ele>
        <time>2009-02-21T14:18:00Z</time>
      </trkpt>
      <trkpt lat="50.671464" lon="6.455880">
        <ele>358.228000</ele>
        <time>2009-02-21T14:18:17Z</time>
      </trkpt>
      <trkpt lat="50.671210" lon="6.455557">
        <ele>357.748000</ele>
        <time>2009-02-21T14:18:42Z</time>
      </trkpt>
      <trkpt lat="50.671113" lon="6.455426">
        <ele>357.267000</ele>
        <time>2009-02-21T14:18:52Z</time>
      </trkpt>
      <trkpt lat="50.670938" lon="6.455275">
        <ele>357.748000</ele>
        <time>2009-02-21T14:19:08Z</time>
      </trkpt>
      <trkpt lat="50.670821" lon="6.455264">
        <ele>357.267000</ele>
        <time>2009-02-21T14:19:17Z</time>
      </trkpt>
      <trkpt lat="50.670613" lon="6.455316">
        <ele>356.786000</ele>
        <time>2009-02-21T14:19:33Z</time>
      </trkpt>
      <trkpt lat="50.670356" lon="6.455580">
        <ele>356.306000</ele>
        <time>2009-02-21T14:19:57Z</time>
      </trkpt>
      <trkpt lat="50.670036" lon="6.455696">
        <ele>356.786000</ele>
        <time>2009-02-21T14:20:23Z</time>
      </trkpt>
      <trkpt lat="50.669607" lon="6.455540">
        <ele>357.267000</ele>
        <time>2009-02-21T14:20:57Z</time>
      </trkpt>
      <trkpt lat="50.669377" lon="6.455585">
        <ele>357.267000</ele>
        <time>2009-02-21T14:21:15Z</time>
      </trkpt>
      <trkpt lat="50.669056" lon="6.455644">
        <ele>357.748000</ele>
        <time>2009-02-21T14:21:40Z</time>
      </trkpt>
      <trkpt lat="50.668951" lon="6.455590">
        <ele>357.267000</ele>
        <time>2009-02-21T14:21:49Z</time>
      </trkpt>
      <trkpt lat="50.668514" lon="6.455326">
        <ele>357.748000</ele>
        <time>2009-02-21T14:22:25Z</time>
      </trkpt>
      <trkpt lat="50.668011" lon="6.455043">
        <ele>356.786000</ele>
        <time>2009-02-21T14:23:07Z</time>
      </trkpt>
      <trkpt lat="50.667698" lon="6.454888">
        <ele>358.709000</ele>
        <time>2009-02-21T14:23:32Z</time>
      </trkpt>
      <trkpt lat="50.667414" lon="6.454759">
        <ele>360.151000</ele>
        <time>2009-02-21T14:23:56Z</time>
      </trkpt>
      <trkpt lat="50.667087" lon="6.454512">
        <ele>362.554000</ele>
        <time>2009-02-21T14:24:24Z</time>
      </trkpt>
      <trkpt lat="50.666884" lon="6.454158">
        <ele>364.477000</ele>
        <time>2009-02-21T14:24:47Z</time>
      </trkpt>
      <trkpt lat="50.666625" lon="6.453815">
        <ele>367.842000</ele>
        <time>2009-02-21T14:25:14Z</time>
      </trkpt>
      <trkpt lat="50.666268" lon="6.453520">
        <ele>369.764000</ele>
        <time>2009-02-21T14:25:45Z</time>
      </trkpt>
      <trkpt lat="50.665963" lon="6.453249">
        <ele>369.764000</ele>
        <time>2009-02-21T14:26:12Z</time>
      </trkpt>
      <trkpt lat="50.665835" lon="6.452419">
        <ele>372.167000</ele>
        <time>2009-02-21T14:26:54Z</time>
      </trkpt>
      <trkpt lat="50.665820" lon="6.451878">
        <ele>371.687000</ele>
        <time>2009-02-21T14:27:21Z</time>
      </trkpt>
      <trkpt lat="50.665717" lon="6.451410">
        <ele>369.764000</ele>
        <time>2009-02-21T14:27:46Z</time>
      </trkpt>
      <trkpt lat="50.665512" lon="6.451018">
        <ele>369.764000</ele>
        <time>2009-02-21T14:28:11Z</time>
      </trkpt>
      <trkpt lat="50.665552" lon="6.450698">
        <ele>368.803000</ele>
        <time>2009-02-21T14:28:27Z</time>
      </trkpt>
      <trkpt lat="50.665766" lon="6.450281">
        <ele>365.919000</ele>
        <time>2009-02-21T14:28:53Z</time>
      </trkpt>
      <trkpt lat="50.666061" lon="6.450179">
        <ele>363.035000</ele>
        <time>2009-02-21T14:29:17Z</time>
      </trkpt>
      <trkpt lat="50.666280" lon="6.450232">
        <ele>361.593000</ele>
        <time>2009-02-21T14:29:34Z</time>
      </trkpt>
      <trkpt lat="50.666650" lon="6.450344">
        <ele>358.228000</ele>
        <time>2009-02-21T14:30:03Z</time>
      </trkpt>
      <trkpt lat="50.667023" lon="6.450701">
        <ele>354.864000</ele>
        <time>2009-02-21T14:30:37Z</time>
      </trkpt>
      <trkpt lat="50.667009" lon="6.450546">
        <ele>354.383000</ele>
        <time>2009-02-21T14:30:45Z</time>
      </trkpt>
      <trkpt lat="50.666940" lon="6.450064">
        <ele>358.228000</ele>
        <time>2009-02-21T14:31:09Z</time>
      </trkpt>
      <trkpt lat="50.666852" lon="6.449597">
        <ele>360.151000</ele>
        <time>2009-02-21T14:31:33Z</time>
      </trkpt>
      <trkpt lat="50.666849" lon="6.449260">
        <ele>364.477000</ele>
        <time>2009-02-21T14:31:50Z</time>
      </trkpt>
      <trkpt lat="50.666807" lon="6.448882">
        <ele>368.803000</ele>
        <time>2009-02-21T14:32:09Z</time>
      </trkpt>
      <trkpt lat="50.666796" lon="6.448408">
        <ele>370.245000</ele>
        <time>2009-02-21T14:32:32Z</time>
      </trkpt>
      <trkpt lat="50.666803" lon="6.447872">
        <ele>371.687000</ele>
        <time>2009-02-21T14:32:59Z</time>
      </trkpt>
      <trkpt lat="50.666818" lon="6.447084">
        <ele>370.245000</ele>
        <time>2009-02-21T14:33:38Z</time>
      </trkpt>
      <trkpt lat="50.666668" lon="6.446784">
        <ele>369.764000</ele>
        <time>2009-02-21T14:33:57Z</time>
      </trkpt>
      <trkpt lat="50.666568" lon="6.446741">
        <ele>369.764000</ele>
        <time>2009-02-21T14:34:05Z</time>
      </trkpt>
      <trkpt lat="50.666230" lon="6.446662">
        <ele>372.167000</ele>
        <time>2009-02-21T14:34:31Z</time>
      </trkpt>
      <trkpt lat="50.665574" lon="6.446551">
        <ele>373.129000</ele>
        <time>2009-02-21T14:35:23Z</time>
      </trkpt>
      <trkpt lat="50.665178" lon="6.446522">
        <ele>375.052000</ele>
        <time>2009-02-21T14:35:53Z</time>
      </trkpt>
      <trkpt lat="50.664945" lon="6.446566">
        <ele>375.532000</ele>
        <time>2009-02-21T14:36:12Z</time>
      </trkpt>
      <trkpt lat="50.664724" lon="6.446624">
        <ele>376.974000</ele>
        <time>2009-02-21T14:36:29Z</time>
      </trkpt>
      <trkpt lat="50.664633" lon="6.446648">
        <ele>376.974000</ele>
        <time>2009-02-21T14:36:36Z</time>
      </trkpt>
      <trkpt lat="50.664066" lon="6.446856">
        <ele>379.858000</ele>
        <time>2009-02-21T14:37:22Z</time>
      </trkpt>
      <trkpt lat="50.663557" lon="6.447047">
        <ele>381.781000</ele>
        <time>2009-02-21T14:38:02Z</time>
      </trkpt>
      <trkpt lat="50.663279" lon="6.447172">
        <ele>382.742000</ele>
        <time>2009-02-21T14:38:25Z</time>
      </trkpt>
      <trkpt lat="50.662989" lon="6.447286">
        <ele>384.184000</ele>
        <time>2009-02-21T14:38:48Z</time>
      </trkpt>
      <trkpt lat="50.662692" lon="6.447422">
        <ele>385.626000</ele>
        <time>2009-02-21T14:39:12Z</time>
      </trkpt>
      <trkpt lat="50.662416" lon="6.447573">
        <ele>386.587000</ele>
        <time>2009-02-21T14:39:35Z</time>
      </trkpt>
      <trkpt lat="50.662010" lon="6.447733">
        <ele>387.068000</ele>
        <time>2009-02-21T14:40:08Z</time>
      </trkpt>
      <trkpt lat="50.660709" lon="6.448267">
        <ele>392.836000</ele>
        <time>2009-02-21T14:41:52Z</time>
      </trkpt>
      <trkpt lat="50.660610" lon="6.448302">
        <ele>393.317000</ele>
        <time>2009-02-21T14:42:00Z</time>
      </trkpt>
      <trkpt lat="50.660505" lon="6.448017">
        <ele>393.797000</ele>
        <time>2009-02-21T14:42:16Z</time>
      </trkpt>
      <trkpt lat="50.660338" lon="6.447536">
        <ele>393.797000</ele>
        <time>2009-02-21T14:42:43Z</time>
      </trkpt>
      <trkpt lat="50.660291" lon="6.447374">
        <ele>393.797000</ele>
        <time>2009-02-21T14:42:52Z</time>
      </trkpt>
      <trkpt lat="50.660202" lon="6.446979">
        <ele>394.278000</ele>
        <time>2009-02-21T14:43:13Z</time>
      </trkpt>
      <trkpt lat="50.659866" lon="6.446168">
        <ele>393.317000</ele>
        <time>2009-02-21T14:44:01Z</time>
      </trkpt>
      <trkpt lat="50.659421" lon="6.445448">
        <ele>393.797000</ele>
        <time>2009-02-21T14:44:50Z</time>
      </trkpt>
      <trkpt lat="50.659178" lon="6.445151">
        <ele>394.278000</ele>
        <time>2009-02-21T14:45:14Z</time>
      </trkpt>
      <trkpt lat="50.658750" lon="6.444523">
        <ele>393.797000</ele>
        <time>2009-02-21T14:46:00Z</time>
      </trkpt>
      <trkpt lat="50.657979" lon="6.443085">
        <ele>392.836000</ele>
        <time>2009-02-21T14:47:33Z</time>
      </trkpt>
      <trkpt lat="50.657261" lon="6.442087">
        <ele>390.433000</ele>
        <time>2009-02-21T14:48:47Z</time>
      </trkpt>
      <trkpt lat="50.657190" lon="6.441680">
        <ele>390.433000</ele>
        <time>2009-02-21T14:49:08Z</time>
      </trkpt>
      <trkpt lat="50.657192" lon="6.441480">
        <ele>391.394000</ele>
        <time>2009-02-21T14:49:18Z</time>
      </trkpt>
      <trkpt lat="50.657156" lon="6.440841">
        <ele>394.278000</ele>
        <time>2009-02-21T14:49:50Z</time>
      </trkpt>
      <trkpt lat="50.657075" lon="6.440081">
        <ele>395.720000</ele>
        <time>2009-02-21T14:50:28Z</time>
      </trkpt>
      <trkpt lat="50.656977" lon="6.439499">
        <ele>397.642000</ele>
        <time>2009-02-21T14:50:57Z</time>
      </trkpt>
      <trkpt lat="50.656810" lon="6.438860">
        <ele>398.123000</ele>
        <time>2009-02-21T14:51:31Z</time>
      </trkpt>
      <trkpt lat="50.656643" lon="6.438292">
        <ele>398.123000</ele>
        <time>2009-02-21T14:52:02Z</time>
      </trkpt>
      <trkpt lat="50.656539" lon="6.437701">
        <ele>398.123000</ele>
        <time>2009-02-21T14:52:33Z</time>
      </trkpt>
      <trkpt lat="50.656480" lon="6.437005">
        <ele>399.084000</ele>
        <time>2009-02-21T14:53:07Z</time>
      </trkpt>
      <trkpt lat="50.656420" lon="6.436294">
        <ele>400.526000</ele>
        <time>2009-02-21T14:53:43Z</time>
      </trkpt>
      <trkpt lat="50.656338" lon="6.435688">
        <ele>401.488000</ele>
        <time>2009-02-21T14:54:13Z</time>
      </trkpt>
      <trkpt lat="50.656263" lon="6.435210">
        <ele>401.488000</ele>
        <time>2009-02-21T14:54:38Z</time>
      </trkpt>
      <trkpt lat="50.656227" lon="6.435063">
        <ele>401.969000</ele>
        <time>2009-02-21T14:54:45Z</time>
      </trkpt>
      <trkpt lat="50.656270" lon="6.434618">
        <ele>403.410000</ele>
        <time>2009-02-21T14:55:08Z</time>
      </trkpt>
      <trkpt lat="50.656271" lon="6.434472">
        <ele>403.410000</ele>
        <time>2009-02-21T14:55:15Z</time>
      </trkpt>
      <trkpt lat="50.656172" lon="6.434197">
        <ele>404.852000</ele>
        <time>2009-02-21T14:55:30Z</time>
      </trkpt>
      <trkpt lat="50.656208" lon="6.433799">
        <ele>404.852000</ele>
        <time>2009-02-21T14:55:50Z</time>
      </trkpt>
      <trkpt lat="50.656280" lon="6.433682">
        <ele>404.852000</ele>
        <time>2009-02-21T14:55:58Z</time>
      </trkpt>
      <trkpt lat="50.656661" lon="6.433021">
        <ele>404.852000</ele>
        <time>2009-02-21T14:56:42Z</time>
      </trkpt>
      <trkpt lat="50.657023" lon="6.432366">
        <ele>407.736000</ele>
        <time>2009-02-21T14:57:25Z</time>
      </trkpt>
      <trkpt lat="50.657147" lon="6.432121">
        <ele>408.698000</ele>
        <time>2009-02-21T14:57:41Z</time>
      </trkpt>
      <trkpt lat="50.657201" lon="6.431652">
        <ele>409.659000</ele>
        <time>2009-02-21T14:58:04Z</time>
      </trkpt>
      <trkpt lat="50.657280" lon="6.428794">
        <ele>410.140000</ele>
        <time>2009-02-21T15:00:25Z</time>
      </trkpt>
      <trkpt lat="50.657188" lon="6.428298">
        <ele>407.736000</ele>
        <time>2009-02-21T15:00:51Z</time>
      </trkpt>
      <trkpt lat="50.656543" lon="6.426021">
        <ele>411.582000</ele>
        <time>2009-02-21T15:02:54Z</time>
      </trkpt>
      <trkpt lat="50.656424" lon="6.425265">
        <ele>412.062000</ele>
        <time>2009-02-21T15:03:32Z</time>
      </trkpt>
      <trkpt lat="50.656411" lon="6.424907">
        <ele>411.582000</ele>
        <time>2009-02-21T15:03:50Z</time>
      </trkpt>
      <trkpt lat="50.656442" lon="6.424537">
        <ele>411.101000</ele>
        <time>2009-02-21T15:04:09Z</time>
      </trkpt>
      <trkpt lat="50.656723" lon="6.422943">
        <ele>415.427000</ele>
        <time>2009-02-21T15:05:30Z</time>
      </trkpt>
      <trkpt lat="50.657362" lon="6.418134">
        <ele>424.079000</ele>
        <time>2009-02-21T15:09:33Z</time>
      </trkpt>
      <trkpt lat="50.657536" lon="6.417543">
        <ele>423.117000</ele>
        <time>2009-02-21T15:10:05Z</time>
      </trkpt>
      <trkpt lat="50.657775" lon="6.416985">
        <ele>422.637000</ele>
        <time>2009-02-21T15:10:38Z</time>
      </trkpt>
      <trkpt lat="50.657935" lon="6.416554">
        <ele>422.156000</ele>
        <time>2009-02-21T15:11:03Z</time>
      </trkpt>
      <trkpt lat="50.657858" lon="6.416308">
        <ele>423.117000</ele>
        <time>2009-02-21T15:11:16Z</time>
      </trkpt>
      <trkpt lat="50.657671" lon="6.416146">
        <ele>424.559000</ele>
        <time>2009-02-21T15:11:33Z</time>
      </trkpt>
      <trkpt lat="50.656360" lon="6.415077">
        <ele>432.731000</ele>
        <time>2009-02-21T15:13:28Z</time>
      </trkpt>
      <trkpt lat="50.656668" lon="6.413776">
        <ele>435.615000</ele>
        <time>2009-02-21T15:14:36Z</time>
      </trkpt>
    </trkseg>
  </trk>

</gpx>
